This is the latest recevied weather packets stored in our database for station/object N3FAA. If no packets are shown the sender has not sent any weather packets the latest 10 day(s).
| Time | Temp. | Humidity | Pressure | Rain* | Wind** | Luminosity | Snow |
|---|---|---|---|---|---|---|---|
| 1778006265 | 15.56° C | 54% | 1010.5 hPa | 0 mm | - | 350 W/m² | - |
| 1778005962 | 15° C | 54% | 1010.6 hPa | 0 mm | - | 276 W/m² | - |
| 1778005659 | 15.56° C | 54% | 1010.6 hPa | 0 mm | - | 255 W/m² | - |
| 1778005356 | 16.11° C | 51% | 1010.4 hPa | 0 mm | - | 270 W/m² | - |
| 1778005052 | 15.56° C | 51% | 1010.3 hPa | 0 mm | - | 577 W/m² | - |
| 1778004750 | 16.11° C | 52% | 1010.3 hPa | 0 mm | - | 290 W/m² | - |
| 1778004446 | 16.11° C | 52% | 1010.3 hPa | 0 mm | - | 306 W/m² | - |
| 1778004143 | 16.67° C | 51% | 1009.9 hPa | 0 mm | - | 1056 W/m² | - |
| 1778003839 | 16.67° C | 49% | 1010.3 hPa | 0 mm | - | 344 W/m² | - |
| 1778003536 | 16.11° C | 52% | 1010.1 hPa | 0 mm | - | 1205 W/m² | - |
| 1778003233 | 15.56° C | 54% | 1010.2 hPa | 0 mm | - | 651 W/m² | - |
| 1778002929 | 16.11° C | 53% | 1010.1 hPa | 0 mm | - | 290 W/m² | - |
| 1778002625 | 16.11° C | 53% | 1010 hPa | 0 mm | - | 1045 W/m² | - |
| 1778002322 | 16.11° C | 52% | 1010.1 hPa | 0 mm | - | 877 W/m² | - |
| 1778002019 | 15.56° C | 55% | 1010.3 hPa | 0 mm | - | 848 W/m² | - |
| 1778001716 | 15.56° C | 55% | 1010.3 hPa | 0 mm | - | 843 W/m² | - |
| 1778001415 | 15° C | 56% | 1010 hPa | 0 mm | - | 861 W/m² | - |
| 1778001113 | 15° C | 57% | 1010 hPa | 0 mm | - | 918 W/m² | - |
| 1778000810 | 14.44° C | 59% | 1010.3 hPa | 0 mm | - | 930 W/m² | - |
| 1778000507 | 14.44° C | 61% | 1010.2 hPa | 0 mm | - | 308 W/m² | - |
| 1778000207 | 13.89° C | 62% | 1010 hPa | 0 mm | - | 343 W/m² | - |
| 1777999903 | 13.89° C | 61% | 1010.3 hPa | 0 mm | - | 357 W/m² | - |
| 1777999599 | 13.33° C | 63% | 1010.1 hPa | 0 mm | - | 630 W/m² | - |
| 1777999296 | 13.89° C | 62% | 1010.1 hPa | 0 mm | - | 256 W/m² | - |
| 1777998995 | 13.89° C | 62% | 1009.8 hPa | 0 mm | - | 364 W/m² | - |
* Rain latest hour (hover to see other rain measurements)
** Current wind speed in m/s (hover to see current wind gust speed)